sensor_id;sensor_type;location;lat;lon;timestamp;P1;durP1;ratioP1;P2;durP2;ratioP2
934;SDS011;454;53.254;10.400;2023-06-10T04:02:36;0.90;;;0.90;;
934;SDS011;454;53.254;10.400;2023-06-10T04:05:10;1.87;;;1.20;;
934;SDS011;454;53.254;10.400;2023-06-10T04:07:37;0.60;;;0.60;;
934;SDS011;454;53.254;10.400;2023-06-10T04:10:06;0.63;;;0.63;;
934;SDS011;454;53.254;10.400;2023-06-10T04:12:33;1.83;;;1.30;;
934;SDS011;454;53.254;10.400;2023-06-10T04:15:00;1.20;;;1.20;;
934;SDS011;454;53.254;10.400;2023-06-10T04:17:27;2.27;;;2.17;;
934;SDS011;454;53.254;10.400;2023-06-10T04:19:55;2.93;;;0.70;;
934;SDS011;454;53.254;10.400;2023-06-10T04:22:22;0.57;;;0.57;;
934;SDS011;454;53.254;10.400;2023-06-10T04:24:49;2.60;;;1.00;;
934;SDS011;454;53.254;10.400;2023-06-10T04:27:16;1.17;;;1.17;;
934;SDS011;454;53.254;10.400;2023-06-10T04:29:43;2.30;;;1.10;;
934;SDS011;454;53.254;10.400;2023-06-10T04:32:10;1.07;;;0.60;;
934;SDS011;454;53.254;10.400;2023-06-10T04:34:37;1.27;;;1.27;;
934;SDS011;454;53.254;10.400;2023-06-10T04:37:06;1.53;;;1.53;;
934;SDS011;454;53.254;10.400;2023-06-10T04:39:33;3.20;;;1.30;;
934;SDS011;454;53.254;10.400;2023-06-10T04:41:59;0.50;;;0.50;;
934;SDS011;454;53.254;10.400;2023-06-10T04:44:26;0.37;;;0.37;;
934;SDS011;454;53.254;10.400;2023-06-10T04:46:53;0.70;;;0.70;;
934;SDS011;454;53.254;10.400;2023-06-10T04:49:20;2.13;;;1.30;;
934;SDS011;454;53.254;10.400;2023-06-10T04:51:47;8.80;;;1.60;;
934;SDS011;454;53.254;10.400;2023-06-10T04:54:17;14.43;;;1.30;;
934;SDS011;454;53.254;10.400;2023-06-10T04:56:44;2.20;;;1.27;;
934;SDS011;454;53.254;10.400;2023-06-10T04:59:11;0.53;;;0.53;;
934;SDS011;454;53.254;10.400;2023-06-10T05:01:39;3.83;;;0.90;;
934;SDS011;454;53.254;10.400;2023-06-10T05:04:06;3.07;;;0.50;;
934;SDS011;454;53.254;10.400;2023-06-10T05:06:32;4.53;;;1.73;;
934;SDS011;454;53.254;10.400;2023-06-10T05:09:01;1.40;;;1.13;;
934;SDS011;454;53.254;10.400;2023-06-10T05:11:29;3.17;;;1.67;;
934;SDS011;454;53.254;10.400;2023-06-10T05:13:56;3.30;;;1.40;;
934;SDS011;454;53.254;10.400;2023-06-10T05:16:23;0.83;;;0.83;;
934;SDS011;454;53.254;10.400;2023-06-10T05:18:50;1.03;;;1.03;;
934;SDS011;454;53.254;10.400;2023-06-10T05:21:17;0.90;;;0.90;;
934;SDS011;454;53.254;10.400;2023-06-10T05:23:43;1.30;;;1.30;;
934;SDS011;454;53.254;10.400;2023-06-10T05:26:10;1.10;;;1.10;;
934;SDS011;454;53.254;10.400;2023-06-10T05:28:38;1.13;;;1.13;;
934;SDS011;454;53.254;10.400;2023-06-10T05:31:05;2.73;;;0.70;;
934;SDS011;454;53.254;10.400;2023-06-10T05:33:32;1.57;;;1.47;;
934;SDS011;454;53.254;10.400;2023-06-10T05:35:59;0.87;;;0.87;;
934;SDS011;454;53.254;10.400;2023-06-10T05:38:25;1.47;;;1.37;;
934;SDS011;454;53.254;10.400;2023-06-10T05:40:52;4.10;;;2.03;;
934;SDS011;454;53.254;10.400;2023-06-10T05:43:21;1.90;;;0.90;;
934;SDS011;454;53.254;10.400;2023-06-10T05:45:49;6.93;;;1.40;;
934;SDS011;454;53.254;10.400;2023-06-10T05:48:16;2.00;;;1.60;;
934;SDS011;454;53.254;10.400;2023-06-10T05:50:44;1.27;;;0.93;;
934;SDS011;454;53.254;10.400;2023-06-10T05:53:13;0.70;;;0.70;;
934;SDS011;454;53.254;10.400;2023-06-10T05:55:41;1.47;;;1.33;;
934;SDS011;454;53.254;10.400;2023-06-10T05:58:08;1.23;;;1.13;;
934;SDS011;454;53.254;10.400;2023-06-10T06:00:35;1.60;;;1.30;;
934;SDS011;454;53.254;10.400;2023-06-10T06:03:03;0.60;;;0.60;;
934;SDS011;454;53.254;10.400;2023-06-10T06:05:29;0.90;;;0.77;;
934;SDS011;454;53.254;10.400;2023-06-10T06:07:59;0.73;;;0.73;;
934;SDS011;454;53.254;10.400;2023-06-10T06:10:26;1.70;;;1.70;;
934;SDS011;454;53.254;10.400;2023-06-10T06:12:53;1.70;;;1.50;;
934;SDS011;454;53.254;10.400;2023-06-10T06:15:20;1.50;;;0.90;;
934;SDS011;454;53.254;10.400;2023-06-10T06:17:47;0.97;;;0.97;;
934;SDS011;454;53.254;10.400;2023-06-10T06:20:15;2.20;;;0.80;;
934;SDS011;454;53.254;10.400;2023-06-10T06:22:42;1.23;;;0.83;;
934;SDS011;454;53.254;10.400;2023-06-10T06:25:08;0.60;;;0.60;;
934;SDS011;454;53.254;10.400;2023-06-10T06:27:35;1.80;;;0.90;;
934;SDS011;454;53.254;10.400;2023-06-10T06:30:02;1.57;;;0.87;;
934;SDS011;454;53.254;10.400;2023-06-10T06:32:29;1.10;;;0.70;;
934;SDS011;454;53.254;10.400;2023-06-10T06:34:56;0.70;;;0.70;;
934;SDS011;454;53.254;10.400;2023-06-10T06:37:25;0.83;;;0.60;;
934;SDS011;454;53.254;10.400;2023-06-10T06:39:52;1.80;;;1.37;;
934;SDS011;454;53.254;10.400;2023-06-10T06:42:19;0.60;;;0.60;;
934;SDS011;454;53.254;10.400;2023-06-10T06:44:46;0.73;;;0.73;;
934;SDS011;454;53.254;10.400;2023-06-10T06:47:13;2.57;;;1.00;;
934;SDS011;454;53.254;10.400;2023-06-10T06:49:42;0.80;;;0.80;;
934;SDS011;454;53.254;10.400;2023-06-10T06:52:09;1.10;;;1.10;;
934;SDS011;454;53.254;10.400;2023-06-10T06:54:37;0.60;;;0.60;;
934;SDS011;454;53.254;10.400;2023-06-10T06:57:04;0.67;;;0.67;;
934;SDS011;454;53.254;10.400;2023-06-10T06:59:32;0.90;;;0.90;;
934;SDS011;454;53.254;10.400;2023-06-10T07:01:59;1.20;;;1.00;;
934;SDS011;454;53.254;10.400;2023-06-10T07:04:25;0.97;;;0.97;;
934;SDS011;454;53.254;10.400;2023-06-10T07:06:52;0.57;;;0.57;;
934;SDS011;454;53.254;10.400;2023-06-10T07:09:19;0.70;;;0.60;;
934;SDS011;454;53.254;10.400;2023-06-10T07:11:47;0.70;;;0.70;;
934;SDS011;454;53.254;10.400;2023-06-10T07:14:13;0.80;;;0.80;;
934;SDS011;454;53.254;10.400;2023-06-10T07:16:40;0.83;;;0.83;;
934;SDS011;454;53.254;10.400;2023-06-10T07:19:08;0.80;;;0.80;;
934;SDS011;454;53.254;10.400;2023-06-10T07:21:35;0.60;;;0.60;;
934;SDS011;454;53.254;10.400;2023-06-10T07:24:03;0.83;;;0.83;;
934;SDS011;454;53.254;10.400;2023-06-10T07:26:30;0.80;;;0.80;;
934;SDS011;454;53.254;10.400;2023-06-10T07:28:58;1.00;;;1.00;;
934;SDS011;454;53.254;10.400;2023-06-10T07:31:25;0.93;;;0.93;;
934;SDS011;454;53.254;10.400;2023-06-10T07:33:52;1.10;;;1.10;;
934;SDS011;454;53.254;10.400;2023-06-10T07:36:18;2.63;;;1.07;;
934;SDS011;454;53.254;10.400;2023-06-10T07:38:45;1.40;;;0.90;;
934;SDS011;454;53.254;10.400;2023-06-10T07:41:12;0.90;;;0.90;;
934;SDS011;454;53.254;10.400;2023-06-10T07:43:39;1.70;;;1.30;;
934;SDS011;454;53.254;10.400;2023-06-10T07:46:07;0.60;;;0.60;;
934;SDS011;454;53.254;10.400;2023-06-10T07:48:34;1.33;;;1.23;;
934;SDS011;454;53.254;10.400;2023-06-10T07:51:00;0.57;;;0.57;;
934;SDS011;454;53.254;10.400;2023-06-10T07:53:27;1.73;;;1.10;;
934;SDS011;454;53.254;10.400;2023-06-10T07:55:54;1.17;;;1.13;;
934;SDS011;454;53.254;10.400;2023-06-10T07:58:21;1.07;;;1.07;;
934;SDS011;454;53.254;10.400;2023-06-10T08:00:48;0.97;;;0.97;;
934;SDS011;454;53.254;10.400;2023-06-10T08:03:16;0.90;;;0.90;;
934;SDS011;454;53.254;10.400;2023-06-10T08:05:42;1.07;;;1.07;;
934;SDS011;454;53.254;10.400;2023-06-10T08:08:09;0.80;;;0.80;;
934;SDS011;454;53.254;10.400;2023-06-10T08:10:36;1.33;;;1.20;;
934;SDS011;454;53.254;10.400;2023-06-10T08:13:03;0.83;;;0.83;;
934;SDS011;454;53.254;10.400;2023-06-10T08:15:29;0.80;;;0.80;;
934;SDS011;454;53.254;10.400;2023-06-10T08:17:56;1.10;;;1.10;;
934;SDS011;454;53.254;10.400;2023-06-10T08:20:24;0.77;;;0.77;;
934;SDS011;454;53.254;10.400;2023-06-10T08:22:51;2.33;;;1.03;;
934;SDS011;454;53.254;10.400;2023-06-10T08:25:18;1.07;;;1.07;;
934;SDS011;454;53.254;10.400;2023-06-10T08:27:46;1.17;;;1.17;;
934;SDS011;454;53.254;10.400;2023-06-10T08:30:13;0.93;;;0.93;;
934;SDS011;454;53.254;10.400;2023-06-10T08:32:40;0.80;;;0.70;;
934;SDS011;454;53.254;10.400;2023-06-10T08:35:07;0.57;;;0.57;;
934;SDS011;454;53.254;10.400;2023-06-10T08:37:35;0.70;;;0.70;;
934;SDS011;454;53.254;10.400;2023-06-10T08:40:02;1.33;;;1.27;;
934;SDS011;454;53.254;10.400;2023-06-10T08:42:32;1.10;;;1.10;;
934;SDS011;454;53.254;10.400;2023-06-10T08:45:04;1.50;;;1.50;;
934;SDS011;454;53.254;10.400;2023-06-10T08:47:33;1.53;;;1.43;;
934;SDS011;454;53.254;10.400;2023-06-10T08:50:03;1.57;;;1.00;;
934;SDS011;454;53.254;10.400;2023-06-10T08:52:34;0.93;;;0.93;;
934;SDS011;454;53.254;10.400;2023-06-10T08:55:04;1.20;;;1.20;;
934;SDS011;454;53.254;10.400;2023-06-10T08:57:37;1.20;;;1.20;;
934;SDS011;454;53.254;10.400;2023-06-10T09:00:07;1.13;;;1.13;;
934;SDS011;454;53.254;10.400;2023-06-10T09:02:34;1.03;;;1.03;;
934;SDS011;454;53.254;10.400;2023-06-10T09:05:02;2.13;;;1.30;;
934;SDS011;454;53.254;10.400;2023-06-10T09:07:29;1.27;;;1.27;;
934;SDS011;454;53.254;10.400;2023-06-10T09:10:00;1.20;;;1.20;;
934;SDS011;454;53.254;10.400;2023-06-10T09:12:31;0.90;;;0.90;;
934;SDS011;454;53.254;10.400;2023-06-10T09:14:58;2.20;;;1.60;;
934;SDS011;454;53.254;10.400;2023-06-10T09:17:26;1.60;;;1.60;;
934;SDS011;454;53.254;10.400;2023-06-10T09:19:53;1.87;;;1.73;;
934;SDS011;454;53.254;10.400;2023-06-10T09:22:20;1.63;;;1.63;;
934;SDS011;454;53.254;10.400;2023-06-10T09:24:47;1.00;;;1.00;;
934;SDS011;454;53.254;10.400;2023-06-10T09:27:16;1.40;;;1.30;;
934;SDS011;454;53.254;10.400;2023-06-10T09:29:46;1.20;;;1.20;;
934;SDS011;454;53.254;10.400;2023-06-10T09:32:14;1.50;;;1.40;;
934;SDS011;454;53.254;10.400;2023-06-10T09:34:41;1.87;;;1.77;;
934;SDS011;454;53.254;10.400;2023-06-10T09:37:07;1.60;;;1.60;;
934;SDS011;454;53.254;10.400;2023-06-10T09:39:37;2.07;;;1.83;;
934;SDS011;454;53.254;10.400;2023-06-10T09:42:05;1.77;;;1.67;;
934;SDS011;454;53.254;10.400;2023-06-10T09:44:48;1.83;;;1.83;;
934;SDS011;454;53.254;10.400;2023-06-10T09:47:19;2.00;;;1.53;;
934;SDS011;454;53.254;10.400;2023-06-10T09:49:47;1.40;;;1.40;;
934;SDS011;454;53.254;10.400;2023-06-10T09:52:14;1.97;;;1.87;;
934;SDS011;454;53.254;10.400;2023-06-10T09:54:47;1.57;;;1.50;;
934;SDS011;454;53.254;10.400;2023-06-10T09:57:14;1.97;;;1.87;;
934;SDS011;454;53.254;10.400;2023-06-10T09:59:44;2.33;;;2.20;;
934;SDS011;454;53.254;10.400;2023-06-10T10:02:13;1.10;;;1.10;;
934;SDS011;454;53.254;10.400;2023-06-10T10:04:41;1.97;;;1.87;;
934;SDS011;454;53.254;10.400;2023-06-10T10:07:08;1.60;;;1.60;;
934;SDS011;454;53.254;10.400;2023-06-10T10:09:35;4.47;;;2.10;;
934;SDS011;454;53.254;10.400;2023-06-10T10:12:02;2.00;;;1.80;;
934;SDS011;454;53.254;10.400;2023-06-10T10:14:35;2.30;;;2.00;;
934;SDS011;454;53.254;10.400;2023-06-10T10:17:03;2.50;;;2.30;;
934;SDS011;454;53.254;10.400;2023-06-10T10:19:33;2.73;;;2.53;;
934;SDS011;454;53.254;10.400;2023-06-10T10:22:04;2.27;;;2.17;;
934;SDS011;454;53.254;10.400;2023-06-10T10:24:35;2.30;;;1.60;;
934;SDS011;454;53.254;10.400;2023-06-10T10:27:07;1.50;;;1.50;;
934;SDS011;454;53.254;10.400;2023-06-10T10:29:42;2.37;;;2.27;;
934;SDS011;454;53.254;10.400;2023-06-10T10:32:13;2.07;;;2.00;;
934;SDS011;454;53.254;10.400;2023-06-10T10:34:43;2.13;;;2.03;;
934;SDS011;454;53.254;10.400;2023-06-10T10:37:14;1.70;;;1.70;;
934;SDS011;454;53.254;10.400;2023-06-10T10:39:41;2.33;;;2.23;;
934;SDS011;454;53.254;10.400;2023-06-10T10:42:08;1.80;;;1.70;;
934;SDS011;454;53.254;10.400;2023-06-10T10:44:36;1.77;;;1.67;;
934;SDS011;454;53.254;10.400;2023-06-10T10:47:06;2.07;;;2.07;;
934;SDS011;454;53.254;10.400;2023-06-10T10:49:34;2.60;;;2.50;;
934;SDS011;454;53.254;10.400;2023-06-10T10:52:03;3.70;;;3.40;;
934;SDS011;454;53.254;10.400;2023-06-10T10:54:32;2.50;;;2.40;;
934;SDS011;454;53.254;10.400;2023-06-10T10:57:09;2.47;;;2.37;;
934;SDS011;454;53.254;10.400;2023-06-10T10:59:43;2.13;;;2.13;;
934;SDS011;454;53.254;10.400;2023-06-10T11:02:16;2.27;;;2.17;;
934;SDS011;454;53.254;10.400;2023-06-10T11:04:46;1.90;;;1.90;;
934;SDS011;454;53.254;10.400;2023-06-10T11:07:14;3.03;;;2.20;;
934;SDS011;454;53.254;10.400;2023-06-10T11:09:56;2.53;;;2.40;;
934;SDS011;454;53.254;10.400;2023-06-10T11:12:24;3.27;;;3.03;;
934;SDS011;454;53.254;10.400;2023-06-10T11:14:53;2.57;;;2.27;;
934;SDS011;454;53.254;10.400;2023-06-10T11:17:22;2.80;;;2.70;;
934;SDS011;454;53.254;10.400;2023-06-10T11:19:50;2.20;;;2.10;;
934;SDS011;454;53.254;10.400;2023-06-10T11:22:17;3.10;;;3.00;;
934;SDS011;454;53.254;10.400;2023-06-10T11:24:47;2.57;;;2.50;;
934;SDS011;454;53.254;10.400;2023-06-10T11:27:15;3.03;;;2.90;;
934;SDS011;454;53.254;10.400;2023-06-10T11:29:58;3.10;;;2.90;;
934;SDS011;454;53.254;10.400;2023-06-10T11:32:46;2.10;;;2.00;;
934;SDS011;454;53.254;10.400;2023-06-10T11:35:18;2.33;;;2.33;;
934;SDS011;454;53.254;10.400;2023-06-10T11:37:46;2.30;;;2.30;;
934;SDS011;454;53.254;10.400;2023-06-10T11:40:14;3.00;;;2.80;;
934;SDS011;454;53.254;10.400;2023-06-10T11:42:40;3.17;;;2.87;;
934;SDS011;454;53.254;10.400;2023-06-10T11:45:09;2.57;;;2.47;;
934;SDS011;454;53.254;10.400;2023-06-10T11:47:36;2.80;;;2.70;;
934;SDS011;454;53.254;10.400;2023-06-10T11:50:04;2.93;;;2.80;;
934;SDS011;454;53.254;10.400;2023-06-10T11:52:31;2.70;;;2.60;;
934;SDS011;454;53.254;10.400;2023-06-10T11:55:03;3.07;;;2.80;;
934;SDS011;454;53.254;10.400;2023-06-10T11:57:33;2.23;;;2.13;;
934;SDS011;454;53.254;10.400;2023-06-10T12:00:03;2.47;;;2.30;;
934;SDS011;454;53.254;10.400;2023-06-10T12:02:31;4.03;;;2.47;;
934;SDS011;454;53.254;10.400;2023-06-10T12:05:10;2.77;;;2.60;;
934;SDS011;454;53.254;10.400;2023-06-10T12:07:37;2.37;;;2.37;;
934;SDS011;454;53.254;10.400;2023-06-10T12:10:04;3.10;;;2.70;;
934;SDS011;454;53.254;10.400;2023-06-10T12:12:32;2.37;;;2.20;;
934;SDS011;454;53.254;10.400;2023-06-10T12:15:01;3.27;;;3.07;;
934;SDS011;454;53.254;10.400;2023-06-10T12:17:37;2.67;;;2.57;;
934;SDS011;454;53.254;10.400;2023-06-10T12:20:04;2.70;;;2.53;;
934;SDS011;454;53.254;10.400;2023-06-10T12:22:38;2.77;;;2.67;;
934;SDS011;454;53.254;10.400;2023-06-10T12:25:05;2.93;;;2.73;;
934;SDS011;454;53.254;10.400;2023-06-10T12:27:33;2.33;;;2.33;;
934;SDS011;454;53.254;10.400;2023-06-10T12:30:02;3.13;;;3.00;;
934;SDS011;454;53.254;10.400;2023-06-10T12:32:37;2.40;;;2.40;;
934;SDS011;454;53.254;10.400;2023-06-10T12:35:06;2.70;;;2.63;;
934;SDS011;454;53.254;10.400;2023-06-10T12:37:33;3.07;;;3.03;;
934;SDS011;454;53.254;10.400;2023-06-10T12:40:03;2.63;;;2.63;;
934;SDS011;454;53.254;10.400;2023-06-10T12:42:33;2.83;;;2.60;;
934;SDS011;454;53.254;10.400;2023-06-10T12:45:02;2.37;;;2.27;;
934;SDS011;454;53.254;10.400;2023-06-10T12:47:31;3.17;;;3.03;;
934;SDS011;454;53.254;10.400;2023-06-10T12:50:00;2.00;;;1.90;;
934;SDS011;454;53.254;10.400;2023-06-10T12:52:27;2.83;;;2.73;;
934;SDS011;454;53.254;10.400;2023-06-10T12:54:53;2.60;;;2.43;;
934;SDS011;454;53.254;10.400;2023-06-10T12:57:22;2.53;;;2.40;;
934;SDS011;454;53.254;10.400;2023-06-10T12:59:49;2.37;;;2.27;;
934;SDS011;454;53.254;10.400;2023-06-10T13:02:17;3.73;;;2.60;;
934;SDS011;454;53.254;10.400;2023-06-10T13:04:44;2.60;;;2.50;;
934;SDS011;454;53.254;10.400;2023-06-10T13:07:11;2.33;;;2.33;;
934;SDS011;454;53.254;10.400;2023-06-10T13:09:38;2.73;;;2.70;;
934;SDS011;454;53.254;10.400;2023-06-10T13:12:06;2.97;;;2.97;;
934;SDS011;454;53.254;10.400;2023-06-10T13:14:36;2.70;;;2.50;;
934;SDS011;454;53.254;10.400;2023-06-10T13:17:03;2.83;;;2.63;;
934;SDS011;454;53.254;10.400;2023-06-10T13:19:31;3.20;;;3.03;;
934;SDS011;454;53.254;10.400;2023-06-10T13:21:58;2.70;;;2.60;;
934;SDS011;454;53.254;10.400;2023-06-10T13:24:25;3.20;;;3.10;;
934;SDS011;454;53.254;10.400;2023-06-10T13:26:52;2.90;;;2.80;;
934;SDS011;454;53.254;10.400;2023-06-10T13:29:19;2.90;;;2.80;;
934;SDS011;454;53.254;10.400;2023-06-10T13:31:47;2.50;;;2.50;;
934;SDS011;454;53.254;10.400;2023-06-10T13:34:14;3.03;;;2.73;;
934;SDS011;454;53.254;10.400;2023-06-10T13:36:41;2.40;;;2.40;;
934;SDS011;454;53.254;10.400;2023-06-10T13:39:08;3.10;;;3.00;;
934;SDS011;454;53.254;10.400;2023-06-10T13:41:35;2.20;;;2.20;;
934;SDS011;454;53.254;10.400;2023-06-10T13:44:02;2.60;;;2.50;;
934;SDS011;454;53.254;10.400;2023-06-10T13:46:29;2.80;;;2.70;;
934;SDS011;454;53.254;10.400;2023-06-10T13:48:57;2.67;;;2.67;;
934;SDS011;454;53.254;10.400;2023-06-10T13:51:23;2.40;;;2.30;;
934;SDS011;454;53.254;10.400;2023-06-10T13:53:50;2.30;;;2.30;;
934;SDS011;454;53.254;10.400;2023-06-10T13:56:17;3.33;;;3.23;;
934;SDS011;454;53.254;10.400;2023-06-10T13:58:44;2.90;;;2.70;;
934;SDS011;454;53.254;10.400;2023-06-10T14:01:11;2.80;;;2.70;;
934;SDS011;454;53.254;10.400;2023-06-10T14:03:37;1.93;;;1.93;;
934;SDS011;454;53.254;10.400;2023-06-10T14:06:05;3.50;;;3.20;;
934;SDS011;454;53.254;10.400;2023-06-10T14:08:33;2.90;;;2.80;;
934;SDS011;454;53.254;10.400;2023-06-10T14:11:00;3.17;;;3.07;;
934;SDS011;454;53.254;10.400;2023-06-10T14:13:27;3.70;;;3.50;;
934;SDS011;454;53.254;10.400;2023-06-10T14:15:54;3.00;;;2.90;;
934;SDS011;454;53.254;10.400;2023-06-10T14:18:21;3.07;;;2.93;;
934;SDS011;454;53.254;10.400;2023-06-10T14:20:48;2.53;;;2.43;;
934;SDS011;454;53.254;10.400;2023-06-10T14:23:16;2.90;;;2.90;;
934;SDS011;454;53.254;10.400;2023-06-10T14:25:42;3.10;;;3.07;;
934;SDS011;454;53.254;10.400;2023-06-10T14:28:09;3.30;;;3.10;;
934;SDS011;454;53.254;10.400;2023-06-10T14:30:36;3.37;;;3.17;;
934;SDS011;454;53.254;10.400;2023-06-10T14:33:02;2.53;;;2.43;;
934;SDS011;454;53.254;10.400;2023-06-10T14:35:30;3.27;;;3.17;;
934;SDS011;454;53.254;10.400;2023-06-10T14:37:57;3.00;;;2.90;;
934;SDS011;454;53.254;10.400;2023-06-10T14:40:25;3.40;;;3.30;;
934;SDS011;454;53.254;10.400;2023-06-10T14:42:54;3.00;;;2.90;;
934;SDS011;454;53.254;10.400;2023-06-10T14:45:20;2.90;;;2.80;;
934;SDS011;454;53.254;10.400;2023-06-10T14:47:47;3.67;;;3.50;;
934;SDS011;454;53.254;10.400;2023-06-10T14:50:14;2.77;;;2.67;;
934;SDS011;454;53.254;10.400;2023-06-10T14:52:40;2.47;;;2.40;;
934;SDS011;454;53.254;10.400;2023-06-10T14:55:07;2.77;;;2.63;;
934;SDS011;454;53.254;10.400;2023-06-10T14:57:36;2.90;;;2.90;;
934;SDS011;454;53.254;10.400;2023-06-10T15:00:03;2.90;;;2.80;;
934;SDS011;454;53.254;10.400;2023-06-10T15:02:30;2.70;;;2.53;;
934;SDS011;454;53.254;10.400;2023-06-10T15:04:57;3.20;;;3.10;;
934;SDS011;454;53.254;10.400;2023-06-10T15:07:24;2.67;;;2.57;;
934;SDS011;454;53.254;10.400;2023-06-10T15:09:50;2.80;;;2.70;;
934;SDS011;454;53.254;10.400;2023-06-10T15:12:17;2.80;;;2.70;;
934;SDS011;454;53.254;10.400;2023-06-10T15:14:45;2.97;;;2.87;;
934;SDS011;454;53.254;10.400;2023-06-10T15:17:12;2.93;;;2.77;;
934;SDS011;454;53.254;10.400;2023-06-10T15:19:39;2.47;;;2.47;;
934;SDS011;454;53.254;10.400;2023-06-10T15:22:06;3.13;;;3.03;;
934;SDS011;454;53.254;10.400;2023-06-10T15:24:32;3.27;;;3.17;;
934;SDS011;454;53.254;10.400;2023-06-10T15:26:59;3.77;;;3.57;;
934;SDS011;454;53.254;10.400;2023-06-10T15:29:26;5.03;;;3.67;;
934;SDS011;454;53.254;10.400;2023-06-10T15:31:54;3.07;;;2.97;;
934;SDS011;454;53.254;10.400;2023-06-10T15:34:21;3.10;;;1.60;;
934;SDS011;454;53.254;10.400;2023-06-10T15:36:48;3.50;;;1.87;;
934;SDS011;454;53.254;10.400;2023-06-10T15:39:14;2.13;;;1.70;;
934;SDS011;454;53.254;10.400;2023-06-10T15:41:41;1.70;;;1.70;;
934;SDS011;454;53.254;10.400;2023-06-10T15:44:08;1.60;;;1.60;;
934;SDS011;454;53.254;10.400;2023-06-10T15:46:34;1.93;;;1.93;;
934;SDS011;454;53.254;10.400;2023-06-10T15:49:02;2.40;;;2.40;;
934;SDS011;454;53.254;10.400;2023-06-10T15:51:30;1.77;;;1.77;;
934;SDS011;454;53.254;10.400;2023-06-10T15:53:56;2.30;;;1.97;;
934;SDS011;454;53.254;10.400;2023-06-10T15:56:23;1.93;;;1.83;;
934;SDS011;454;53.254;10.400;2023-06-10T15:58:50;1.67;;;1.67;;
934;SDS011;454;53.254;10.400;2023-06-10T16:01:17;1.70;;;1.70;;
934;SDS011;454;53.254;10.400;2023-06-10T16:03:44;2.27;;;2.13;;
934;SDS011;454;53.254;10.400;2023-06-10T16:06:12;1.90;;;1.80;;
934;SDS011;454;53.254;10.400;2023-06-10T16:08:40;2.10;;;2.10;;
934;SDS011;454;53.254;10.400;2023-06-10T16:11:07;1.70;;;1.60;;
934;SDS011;454;53.254;10.400;2023-06-10T16:13:34;1.63;;;1.63;;
934;SDS011;454;53.254;10.400;2023-06-10T16:16:02;1.80;;;1.70;;
934;SDS011;454;53.254;10.400;2023-06-10T16:18:29;2.77;;;1.90;;
934;SDS011;454;53.254;10.400;2023-06-10T16:20:55;2.03;;;1.93;;
934;SDS011;454;53.254;10.400;2023-06-10T16:23:23;1.73;;;1.67;;
934;SDS011;454;53.254;10.400;2023-06-10T16:25:50;1.60;;;1.57;;
934;SDS011;454;53.254;10.400;2023-06-10T16:28:17;1.60;;;1.60;;
934;SDS011;454;53.254;10.400;2023-06-10T16:30:43;2.00;;;2.00;;
934;SDS011;454;53.254;10.400;2023-06-10T16:33:10;1.70;;;1.70;;
934;SDS011;454;53.254;10.400;2023-06-10T16:35:37;1.87;;;1.73;;
934;SDS011;454;53.254;10.400;2023-06-10T16:38:04;4.97;;;4.57;;
934;SDS011;454;53.254;10.400;2023-06-10T16:40:32;11.23;;;7.03;;
934;SDS011;454;53.254;10.400;2023-06-10T16:42:59;11.33;;;7.17;;
934;SDS011;454;53.254;10.400;2023-06-10T16:45:25;7.77;;;6.97;;
934;SDS011;454;53.254;10.400;2023-06-10T16:47:52;8.97;;;6.63;;
934;SDS011;454;53.254;10.400;2023-06-10T16:50:19;4.40;;;3.63;;
934;SDS011;454;53.254;10.400;2023-06-10T16:52:46;5.70;;;4.57;;
934;SDS011;454;53.254;10.400;2023-06-10T16:55:12;3.20;;;3.10;;
934;SDS011;454;53.254;10.400;2023-06-10T16:57:40;7.30;;;4.90;;
934;SDS011;454;53.254;10.400;2023-06-10T17:00:07;4.13;;;3.70;;
934;SDS011;454;53.254;10.400;2023-06-10T17:02:35;5.00;;;4.60;;
934;SDS011;454;53.254;10.400;2023-06-10T17:05:02;4.00;;;3.70;;
934;SDS011;454;53.254;10.400;2023-06-10T17:07:29;3.30;;;3.20;;
934;SDS011;454;53.254;10.400;2023-06-10T17:09:56;2.67;;;2.57;;
934;SDS011;454;53.254;10.400;2023-06-10T17:12:23;3.43;;;3.13;;
934;SDS011;454;53.254;10.400;2023-06-10T17:14:51;3.53;;;3.40;;
934;SDS011;454;53.254;10.400;2023-06-10T17:17:18;3.77;;;3.57;;
934;SDS011;454;53.254;10.400;2023-06-10T17:19:45;3.40;;;3.30;;
934;SDS011;454;53.254;10.400;2023-06-10T17:22:12;3.73;;;3.40;;
934;SDS011;454;53.254;10.400;2023-06-10T17:24:38;4.23;;;4.07;;
934;SDS011;454;53.254;10.400;2023-06-10T17:27:06;4.53;;;4.17;;
934;SDS011;454;53.254;10.400;2023-06-10T17:29:33;4.13;;;4.03;;
934;SDS011;454;53.254;10.400;2023-06-10T17:32:01;2.67;;;2.53;;
934;SDS011;454;53.254;10.400;2023-06-10T17:34:28;2.57;;;2.47;;
934;SDS011;454;53.254;10.400;2023-06-10T17:36:55;1.87;;;1.87;;
934;SDS011;454;53.254;10.400;2023-06-10T17:39:21;2.20;;;2.10;;
934;SDS011;454;53.254;10.400;2023-06-10T17:41:48;4.07;;;3.10;;
934;SDS011;454;53.254;10.400;2023-06-10T17:44:15;2.03;;;1.93;;
934;SDS011;454;53.254;10.400;2023-06-10T17:46:46;2.20;;;2.00;;
934;SDS011;454;53.254;10.400;2023-06-10T17:49:14;2.43;;;2.33;;
934;SDS011;454;53.254;10.400;2023-06-10T17:51:41;1.73;;;1.63;;
934;SDS011;454;53.254;10.400;2023-06-10T17:54:07;2.63;;;2.50;;
934;SDS011;454;53.254;10.400;2023-06-10T17:56:34;2.00;;;2.00;;
934;SDS011;454;53.254;10.400;2023-06-10T17:59:01;2.40;;;2.30;;
934;SDS011;454;53.254;10.400;2023-06-10T18:01:28;3.40;;;2.93;;
934;SDS011;454;53.254;10.400;2023-06-10T18:03:55;2.53;;;2.47;;
934;SDS011;454;53.254;10.400;2023-06-10T18:06:23;3.40;;;3.10;;
934;SDS011;454;53.254;10.400;2023-06-10T18:08:51;3.20;;;3.10;;
934;SDS011;454;53.254;10.400;2023-06-10T18:11:18;3.03;;;3.03;;
934;SDS011;454;53.254;10.400;2023-06-10T18:13:45;4.10;;;3.97;;
934;SDS011;454;53.254;10.400;2023-06-10T18:16:11;3.97;;;3.70;;
934;SDS011;454;53.254;10.400;2023-06-10T18:18:38;3.07;;;2.93;;
934;SDS011;454;53.254;10.400;2023-06-10T18:21:05;2.60;;;2.50;;
934;SDS011;454;53.254;10.400;2023-06-10T18:23:33;3.07;;;2.87;;
934;SDS011;454;53.254;10.400;2023-06-10T18:26:00;2.53;;;2.43;;
934;SDS011;454;53.254;10.400;2023-06-10T18:28:27;2.57;;;2.47;;
934;SDS011;454;53.254;10.400;2023-06-10T18:30:54;2.90;;;2.70;;
934;SDS011;454;53.254;10.400;2023-06-10T18:33:21;4.10;;;2.73;;
934;SDS011;454;53.254;10.400;2023-06-10T18:35:48;3.33;;;3.17;;
934;SDS011;454;53.254;10.400;2023-06-10T18:38:15;2.20;;;2.20;;
934;SDS011;454;53.254;10.400;2023-06-10T18:40:43;2.50;;;2.40;;
934;SDS011;454;53.254;10.400;2023-06-10T18:43:10;2.20;;;2.10;;
934;SDS011;454;53.254;10.400;2023-06-10T18:45:37;2.13;;;2.03;;
934;SDS011;454;53.254;10.400;2023-06-10T18:48:04;3.17;;;2.93;;
934;SDS011;454;53.254;10.400;2023-06-10T18:50:31;2.53;;;2.37;;
934;SDS011;454;53.254;10.400;2023-06-10T18:52:57;2.07;;;2.07;;
934;SDS011;454;53.254;10.400;2023-06-10T18:55:24;2.57;;;2.37;;
934;SDS011;454;53.254;10.400;2023-06-10T18:57:52;2.07;;;2.00;;
934;SDS011;454;53.254;10.400;2023-06-10T19:00:19;1.80;;;1.80;;
934;SDS011;454;53.254;10.400;2023-06-10T19:02:46;2.60;;;2.40;;
934;SDS011;454;53.254;10.400;2023-06-10T19:05:12;2.37;;;2.17;;
934;SDS011;454;53.254;10.400;2023-06-10T19:07:39;2.27;;;2.07;;
934;SDS011;454;53.254;10.400;2023-06-10T19:10:06;1.47;;;1.47;;
934;SDS011;454;53.254;10.400;2023-06-10T19:12:33;2.53;;;2.43;;
934;SDS011;454;53.254;10.400;2023-06-10T19:15:02;2.37;;;2.37;;
934;SDS011;454;53.254;10.400;2023-06-10T19:17:29;2.60;;;2.50;;
934;SDS011;454;53.254;10.400;2023-06-10T19:19:56;3.47;;;3.37;;
934;SDS011;454;53.254;10.400;2023-06-10T19:22:23;2.93;;;2.80;;
934;SDS011;454;53.254;10.400;2023-06-10T19:24:57;4.40;;;4.10;;
934;SDS011;454;53.254;10.400;2023-06-10T19:27:25;3.10;;;3.00;;
934;SDS011;454;53.254;10.400;2023-06-10T19:29:51;3.33;;;3.23;;
934;SDS011;454;53.254;10.400;2023-06-10T19:32:19;4.40;;;4.17;;
934;SDS011;454;53.254;10.400;2023-06-10T19:34:46;3.43;;;3.30;;